CheckWX is a tool to help pilots better visualize weather data.  It is not intended as a substitute for an official pre-flight weather briefing.

18:49:13 UTC

CYVO METAR
Val-D'or Airport
Val-D'or, , Canada
Current

49 mins ago

CYVO 171800Z 25004KT 210V290 15SM FEW020 FEW250 M12/M18 A3009 RMK CU1CI1 CI TR SLP227
Observed
Feb-17 @ 18:00 UTC
Wind
  • 250° at 4 KTS
Visibility
15 SM
Flight Rules
VFR
Cloud Levels
  • Few at 2,000' AGL
  • Few at 25,000' AGL
Temperature
-12°C / 10°F
Dewpoint
-18°C / -0°F
Humidity
61%
Altimeter
30.09" Hg
Pressure
1022.7 hPa
Previous

2 hours ago

CYVO 171700Z 23006KT 180V260 15SM FEW020 FEW250 M14/M19 A3013 RMK CU1CI1 CU TR CI TR SLP238
Observed
Feb-17 @ 17:00 UTC
Wind
  • 230° at 6 KTS
Visibility
15 SM
Flight Rules
VFR
Cloud Levels
  • Few at 2,000' AGL
  • Few at 25,000' AGL
Temperature
-14°C / 7°F
Dewpoint
-19°C / -2°F
Humidity
66%
Altimeter
30.13" Hg
Pressure
1023.8 hPa
Previous

3 hours ago

CYVO 171600Z 32007KT 280V340 15SM FEW020 M15/M20 A3014 RMK CU1 CU TR SLP242
Observed
Feb-17 @ 16:00 UTC
Wind
  • 320° at 7 KTS
Visibility
15 SM
Flight Rules
VFR
Cloud Levels
  • Few at 2,000' AGL
Temperature
-15°C / 5°F
Dewpoint
-20°C / -4°F
Humidity
66%
Altimeter
30.14" Hg
Pressure
1024.2 hPa